Time;durP1;ratioP1;P1;durP2;ratioP2;P2;SDS_P1;SDS_P2;PMS_P1;PMS_P2;Temp;Humidity;BMP_temperature;BMP_pressure;BME280_temperature;BME280_humidity;BME280_pressure;Samples;Min_cycle;Max_cycle;Signal;HPM_P1;HPM_P2
2022/11/11 00:00:06;;;;;;;32.40;12.38;;;;;;;;;;1029726;28;20110;-75
2022/11/11 00:00:37;;;;;;;27.75;13.55;;;;;;;;;;1024364;28;20027;-75
2022/11/11 00:01:11;;;;;;;31.75;12.88;;;;;;;;;;1027002;28;20050;-75
2022/11/11 00:01:42;;;;;;;27.33;12.43;;;;;;;;;;1030158;28;20121;-75
2022/11/11 00:02:12;;;;;;;29.95;12.32;;;;;;;;;;1026244;28;20482;-75
2022/11/11 00:02:43;;;;;;;24.63;14.10;;;;;;;;;;1025566;28;20074;-75
2022/11/11 00:03:14;;;;;;;25.02;11.60;;;;;;;;;;1025897;28;20030;-75
2022/11/11 00:03:45;;;;;;;34.70;11.75;;;;;;;;;;1025893;28;20181;-75
2022/11/11 00:04:15;;;;;;;30.23;11.10;;;;;;;;;;1030125;28;20023;-75
2022/11/11 00:04:46;;;;;;;28.65;11.68;;;;;;;;;;1029940;28;20429;-75
2022/11/11 00:05:16;;;;;;;23.05;11.63;;;;;;;;;;1030368;28;20030;-75
2022/11/11 00:05:47;;;;;;;28.00;10.80;;;;;;;;;;1029868;28;20034;-75
2022/11/11 00:06:18;;;;;;;24.95;12.05;;;;;;;;;;1030088;28;20180;-75
2022/11/11 00:06:48;;;;;;;20.55;11.10;;;;;;;;;;1025659;28;20046;-75
2022/11/11 00:07:19;;;;;;;26.65;12.93;;;;;;;;;;1025917;28;20054;-75
2022/11/11 00:07:51;;;;;;;29.92;12.50;;;;;;;;;;1021422;29;20026;-75
2022/11/11 00:08:21;;;;;;;26.95;12.00;;;;;;;;;;1022165;29;20487;-75
2022/11/11 00:08:52;;;;;;;22.98;12.30;;;;;;;;;;1025599;28;20023;-75
2022/11/11 00:09:22;;;;;;;27.15;12.05;;;;;;;;;;1026077;28;20031;-75
2022/11/11 00:09:53;;;;;;;24.83;10.85;;;;;;;;;;1029900;28;20026;-75
2022/11/11 00:10:27;;;;;;;27.83;12.43;;;;;;;;;;1026472;28;20034;-75
2022/11/11 00:11:01;;;;;;;27.33;11.88;;;;;;;;;;1025506;28;20030;-75
2022/11/11 00:11:32;;;;;;;20.40;10.60;;;;;;;;;;1025850;28;20031;-75
2022/11/11 00:12:02;;;;;;;29.23;11.50;;;;;;;;;;1026476;28;20570;-75
2022/11/11 00:12:33;;;;;;;32.15;10.40;;;;;;;;;;1030113;28;20026;-75
2022/11/11 00:13:06;;;;;;;29.05;11.07;;;;;;;;;;1030000;28;20153;-75
2022/11/11 00:13:37;;;;;;;19.15;10.98;;;;;;;;;;1025721;28;20027;-75
2022/11/11 00:14:07;;;;;;;17.38;10.77;;;;;;;;;;1025901;28;20018;-74
2022/11/11 00:14:38;;;;;;;22.90;10.52;;;;;;;;;;1025610;28;20074;-74
2022/11/11 00:15:09;;;;;;;26.70;12.23;;;;;;;;;;1026448;28;20025;-74
2022/11/11 00:15:39;;;;;;;24.75;11.35;;;;;;;;;;1029563;28;20019;-74
2022/11/11 00:16:11;;;;;;;28.75;10.38;;;;;;;;;;1029583;28;20031;-74
2022/11/11 00:25:09;;;;;;;27.90;12.98;;;;;;;;;;1017608;29;20036;-75
2022/11/11 00:25:39;;;;;;;28.77;12.73;;;;;;;;;;1017713;29;20480;-75
2022/11/11 00:26:11;;;;;;;29.70;13.68;;;;;;;;;;1017362;29;20056;-75
2022/11/11 00:26:42;;;;;;;28.45;14.02;;;;;;;;;;1017530;29;20028;-75
2022/11/11 00:27:13;;;;;;;27.95;14.25;;;;;;;;;;1029784;28;20037;-75
2022/11/11 00:27:43;;;;;;;26.02;13.52;;;;;;;;;;1025846;28;20137;-75
2022/11/11 00:28:15;;;;;;;35.08;15.77;;;;;;;;;;1025635;28;20034;-75
2022/11/11 00:28:46;;;;;;;23.65;12.57;;;;;;;;;;1025377;28;20031;-75
2022/11/11 00:29:19;;;;;;;29.48;15.43;;;;;;;;;;1025805;28;20078;-75
2022/11/11 00:29:50;;;;;;;32.25;13.18;;;;;;;;;;1025392;28;20033;-75
2022/11/11 00:30:21;;;;;;;33.50;13.40;;;;;;;;;;1025874;28;20166;-75
2022/11/11 00:30:59;;;;;;;24.80;13.88;;;;;;;;;;1025996;28;20027;-75
2022/11/11 00:31:30;;;;;;;25.33;11.95;;;;;;;;;;1030017;28;20030;-75
2022/11/11 00:32:49;;;;;;;22.88;11.65;;;;;;;;;;1029852;28;20022;-75
2022/11/11 00:33:20;;;;;;;24.55;13.32;;;;;;;;;;1026983;28;20471;-75
2022/11/11 00:33:51;;;;;;;30.33;14.45;;;;;;;;;;1025289;28;20033;-75
2022/11/11 00:34:22;;;;;;;27.58;12.65;;;;;;;;;;1025719;28;20122;-75
2022/11/11 00:35:54;;;;;;;27.45;12.63;;;;;;;;;;1029876;28;20442;-75
2022/11/11 00:36:25;;;;;;;22.08;11.55;;;;;;;;;;1029956;28;20030;-75
2022/11/11 00:36:55;;;;;;;21.27;11.40;;;;;;;;;;1029872;28;20034;-75
2022/11/11 00:37:26;;;;;;;23.88;12.35;;;;;;;;;;1030118;28;20049;-75
2022/11/11 00:38:05;;;;;;;31.33;12.27;;;;;;;;;;1029627;28;20045;-75
2022/11/11 00:38:44;;;;;;;25.55;10.80;;;;;;;;;;1030118;28;20030;-75
2022/11/11 00:39:15;;;;;;;20.45;12.52;;;;;;;;;;1025781;28;20114;-75
2022/11/11 00:39:45;;;;;;;28.13;11.63;;;;;;;;;;1024941;28;20489;-75
2022/11/11 00:40:17;;;;;;;20.13;10.73;;;;;;;;;;1026920;28;20050;-75
2022/11/11 00:40:47;;;;;;;20.10;11.43;;;;;;;;;;1027387;28;20027;-75
2022/11/11 00:41:19;;;;;;;20.98;10.55;;;;;;;;;;1029340;28;20510;-75
2022/11/11 00:41:49;;;;;;;26.13;12.63;;;;;;;;;;1030192;28;20030;-75
2022/11/11 00:42:20;;;;;;;22.38;10.70;;;;;;;;;;1029989;28;20059;-75
2022/11/11 00:42:50;;;;;;;26.45;11.27;;;;;;;;;;1026531;28;20056;-75
2022/11/11 00:43:21;;;;;;;28.42;11.35;;;;;;;;;;1025838;28;20055;-75
2022/11/11 00:43:52;;;;;;;21.77;11.82;;;;;;;;;;1025092;28;20070;-75
2022/11/11 00:44:22;;;;;;;22.45;11.15;;;;;;;;;;1025847;28;20059;-75
2022/11/11 00:44:53;;;;;;;23.80;11.48;;;;;;;;;;1029898;28;20031;-75
2022/11/11 00:45:24;;;;;;;24.67;11.43;;;;;;;;;;1025826;28;20023;-75
2022/11/11 00:50:57;;;;;;;20.30;11.10;;;;;;;;;;1021190;29;20467;-75
2022/11/11 00:51:00;;;;;;;24.98;11.00;;;;;;;;;;1029913;28;20018;-75
2022/11/11 00:51:31;;;;;;;;;;;;;;;;;;1029707;28;20026;-75
2022/11/11 00:52:01;;;;;;;24.50;11.75;;;;;;;;;;1029876;28;19956;-75
2022/11/11 00:52:32;;;;;;;42.55;11.30;;;;;;;;;;1029383;28;20121;-75
2022/11/11 00:53:03;;;;;;;24.75;13.05;;;;;;;;;;1025292;28;20022;-75
2022/11/11 00:53:36;;;;;;;23.60;12.73;;;;;;;;;;1025948;28;20081;-75
2022/11/11 00:54:07;;;;;;;33.92;13.15;;;;;;;;;;1026362;28;20028;-75
2022/11/11 00:54:38;;;;;;;33.40;15.35;;;;;;;;;;1027692;28;20124;-75
2022/11/11 00:55:09;;;;;;;32.05;14.13;;;;;;;;;;1029809;28;20048;-75
2022/11/11 00:55:40;;;;;;;40.85;14.88;;;;;;;;;;1027379;28;20105;-75
2022/11/11 00:56:10;;;;;;;36.00;16.15;;;;;;;;;;1027855;28;20027;-75
2022/11/11 00:56:41;;;;;;;36.42;14.63;;;;;;;;;;1030889;28;20074;-75
2022/11/11 00:57:11;;;;;;;35.08;14.30;;;;;;;;;;1030033;28;20022;-75
2022/11/11 00:57:42;;;;;;;37.55;13.77;;;;;;;;;;1030196;28;20031;-75
2022/11/11 00:58:15;;;;;;;34.65;14.93;;;;;;;;;;1029649;28;20109;-74
2022/11/11 00:58:46;;;;;;;35.53;13.98;;;;;;;;;;1030190;28;20505;-75
2022/11/11 00:59:17;;;;;;;39.13;14.13;;;;;;;;;;1026276;28;20020;-74
2022/11/11 00:59:47;;;;;;;28.42;13.95;;;;;;;;;;1025892;28;20030;-74
2022/11/11 01:00:18;;;;;;;20.88;13.07;;;;;;;;;;1024027;28;20027;-74
2022/11/11 01:00:52;;;;;;;39.42;14.15;;;;;;;;;;1026074;28;20042;-74
2022/11/11 01:01:22;;;;;;;36.88;14.57;;;;;;;;;;1025502;28;20020;-75
2022/11/11 01:01:53;;;;;;;38.63;15.45;;;;;;;;;;1021435;28;20038;-75
2022/11/11 01:02:24;;;;;;;38.42;15.43;;;;;;;;;;1025507;28;20027;-76
2022/11/11 01:02:56;;;;;;;36.47;17.02;;;;;;;;;;1021546;29;20027;-75
2022/11/11 01:03:26;;;;;;;55.13;18.92;;;;;;;;;;1023535;28;20469;-75
2022/11/11 01:03:58;;;;;;;42.53;18.45;;;;;;;;;;1021699;28;20031;-75
2022/11/11 01:04:28;;;;;;;56.85;17.92;;;;;;;;;;1026888;28;20090;-75
2022/11/11 01:04:59;;;;;;;41.03;20.52;;;;;;;;;;1025209;28;20085;-75
2022/11/11 01:05:29;;;;;;;40.22;17.35;;;;;;;;;;1026865;28;20034;-75
2022/11/11 01:06:02;;;;;;;51.70;20.98;;;;;;;;;;1026498;28;20034;-75
2022/11/11 01:06:32;;;;;;;62.95;21.80;;;;;;;;;;1026174;28;20108;-75
2022/11/11 01:07:03;;;;;;;49.65;23.83;;;;;;;;;;1025740;28;20116;-75
2022/11/11 01:07:33;;;;;;;53.70;22.63;;;;;;;;;;1026399;28;20118;-75
2022/11/11 01:08:04;;;;;;;47.45;21.00;;;;;;;;;;1029542;28;20036;-75
2022/11/11 01:08:35;;;;;;;70.88;30.58;;;;;;;;;;1029825;28;20490;-75
2022/11/11 01:09:06;;;;;;;62.05;26.83;;;;;;;;;;1029943;28;20022;-75
2022/11/11 01:09:37;;;;;;;40.60;21.83;;;;;;;;;;1025637;28;20481;-75
2022/11/11 01:10:07;;;;;;;42.42;19.15;;;;;;;;;;1025952;28;20039;-75
2022/11/11 01:10:38;;;;;;;49.28;20.50;;;;;;;;;;1024983;28;20480;-75
2022/11/11 01:11:16;;;;;;;56.00;21.27;;;;;;;;;;1024995;28;20035;-75
2022/11/11 01:11:47;;;;;;;51.28;21.35;;;;;;;;;;1028860;28;20031;-75
2022/11/11 01:12:17;;;;;;;41.13;18.13;;;;;;;;;;1022122;29;20110;-75
2022/11/11 01:12:48;;;;;;;59.65;21.92;;;;;;;;;;1021366;29;20539;-75
2022/11/11 01:13:20;;;;;;;74.47;29.50;;;;;;;;;;1025416;28;20054;-75
2022/11/11 01:13:51;;;;;;;51.90;21.13;;;;;;;;;;1027231;28;20030;-75
2022/11/11 01:14:22;;;;;;;64.50;27.27;;;;;;;;;;1027790;28;20053;-75
2022/11/11 01:14:52;;;;;;;50.03;22.23;;;;;;;;;;1029687;28;20027;-75
2022/11/11 01:15:23;;;;;;;49.17;22.42;;;;;;;;;;1030383;28;20086;-75
2022/11/11 01:15:58;;;;;;;49.80;22.85;;;;;;;;;;1029966;28;20027;-75
2022/11/11 01:16:28;;;;;;;57.38;23.42;;;;;;;;;;1025398;28;20102;-75
2022/11/11 01:16:59;;;;;;;67.55;26.17;;;;;;;;;;1026123;28;20110;-75
2022/11/11 01:17:29;;;;;;;64.60;26.33;;;;;;;;;;1024545;28;20379;-75
2022/11/11 01:18:00;;;;;;;71.68;28.95;;;;;;;;;;1025552;28;20070;-75
2022/11/11 01:18:30;;;;;;;102.20;37.50;;;;;;;;;;1029955;28;20474;-75
2022/11/11 01:19:01;;;;;;;118.65;43.10;;;;;;;;;;1029921;28;20066;-75
2022/11/11 01:19:32;;;;;;;139.35;51.35;;;;;;;;;;1029526;28;20399;-75
2022/11/11 01:20:03;;;;;;;152.57;53.60;;;;;;;;;;1026889;28;20117;-75
2022/11/11 01:20:35;;;;;;;152.35;56.65;;;;;;;;;;1027480;28;20027;-75
2022/11/11 01:21:07;;;;;;;138.52;53.33;;;;;;;;;;1025606;28;20584;-75
2022/11/11 01:21:37;;;;;;;146.10;55.22;;;;;;;;;;1023819;28;20023;-75
2022/11/11 01:22:08;;;;;;;120.82;48.10;;;;;;;;;;1026220;28;20030;-75
2022/11/11 01:22:39;;;;;;;118.47;44.58;;;;;;;;;;1022305;29;20070;-75
2022/11/11 01:23:10;;;;;;;114.38;43.17;;;;;;;;;;1022021;29;20090;-75
2022/11/11 01:23:41;;;;;;;97.63;36.30;;;;;;;;;;1023983;28;20121;-75
2022/11/11 01:24:12;;;;;;;91.40;36.63;;;;;;;;;;1030743;28;20021;-75
2022/11/11 01:24:44;;;;;;;99.40;36.22;;;;;;;;;;1029434;28;20049;-75
2022/11/11 01:25:15;;;;;;;83.50;35.75;;;;;;;;;;1028438;28;20031;-75
2022/11/11 01:25:46;;;;;;;86.82;34.67;;;;;;;;;;1028746;28;20030;-75
2022/11/11 01:26:21;;;;;;;81.65;32.25;;;;;;;;;;1025162;28;20077;-75
2022/11/11 01:26:51;;;;;;;81.45;33.50;;;;;;;;;;1026083;28;20019;-75
2022/11/11 01:27:22;;;;;;;78.35;33.72;;;;;;;;;;1027006;28;20062;-75
2022/11/11 01:27:53;;;;;;;72.50;33.17;;;;;;;;;;1025761;28;20400;-75
2022/11/11 01:28:23;;;;;;;76.13;33.17;;;;;;;;;;1030355;28;20026;-76
2022/11/11 01:28:55;;;;;;;75.95;33.10;;;;;;;;;;1029494;28;20672;-75
2022/11/11 01:29:25;;;;;;;91.00;38.67;;;;;;;;;;1029662;28;20495;-75
2022/11/11 01:29:56;;;;;;;97.95;40.92;;;;;;;;;;1029567;28;20094;-75
2022/11/11 01:30:27;;;;;;;97.30;39.10;;;;;;;;;;1030639;28;20149;-75
2022/11/11 01:31:02;;;;;;;99.15;45.30;;;;;;;;;;1026048;28;20027;-76
2022/11/11 01:31:32;;;;;;;90.05;40.95;;;;;;;;;;1025634;28;20094;-75
2022/11/11 01:32:03;;;;;;;74.03;31.20;;;;;;;;;;1018965;29;21340;-75
2022/11/11 01:32:33;;;;;;;80.07;30.98;;;;;;;;;;1019921;28;20031;-75
2022/11/11 01:33:04;;;;;;;62.75;31.73;;;;;;;;;;1024421;28;20031;-75
2022/11/11 01:33:35;;;;;;;77.88;29.77;;;;;;;;;;1025142;28;20466;-75
2022/11/11 01:34:06;;;;;;;79.00;29.85;;;;;;;;;;1025147;28;20402;-75
2022/11/11 01:34:36;;;;;;;66.28;29.65;;;;;;;;;;1025539;28;20041;-75
2022/11/11 01:35:07;;;;;;;87.78;35.97;;;;;;;;;;1022307;28;20125;-74
2022/11/11 01:35:40;;;;;;;71.72;33.03;;;;;;;;;;1022440;28;20502;-74
2022/11/11 01:36:21;;;;;;;73.68;33.65;;;;;;;;;;1024428;28;20482;-74
2022/11/11 01:36:52;;;;;;;72.45;29.40;;;;;;;;;;1025692;28;20418;-74
2022/11/11 01:37:22;;;;;;;60.17;26.63;;;;;;;;;;1023962;28;20090;-74
2022/11/11 01:37:53;;;;;;;67.78;31.00;;;;;;;;;;1024281;28;20133;-76
2022/11/11 01:38:26;;;;;;;73.50;32.70;;;;;;;;;;1023171;28;20581;-74
2022/11/11 01:38:58;;;;;;;71.45;31.75;;;;;;;;;;1020662;29;20074;-75
2022/11/11 01:39:28;;;;;;;85.25;31.67;;;;;;;;;;1020946;28;20030;-74
2022/11/11 01:39:59;;;;;;;85.25;34.15;;;;;;;;;;1024822;28;20027;-74
2022/11/11 01:40:30;;;;;;;79.35;31.45;;;;;;;;;;1020949;28;20039;-74
2022/11/11 01:41:31;;;;;;;83.70;31.63;;;;;;;;;;1024916;28;20433;-74
2022/11/11 01:41:51;;;;;;;103.60;38.58;;;;;;;;;;1025263;28;20046;-75
2022/11/11 01:42:22;;;;;;;103.43;40.05;;;;;;;;;;1029251;28;20022;-74
2022/11/11 01:43:13;;;;;;;96.63;37.47;;;;;;;;;;1030061;28;20588;-74
2022/11/11 01:43:43;;;;;;;93.05;35.33;;;;;;;;;;1027860;28;20018;-73
2022/11/11 01:44:14;;;;;;;85.10;35.50;;;;;;;;;;1021858;28;20035;-73
2022/11/11 01:44:46;;;;;;;94.45;33.60;;;;;;;;;;1019807;29;20124;-74
2022/11/11 01:45:35;;;;;;;96.57;36.25;;;;;;;;;;1020060;29;20031;-74
2022/11/11 01:46:14;;;;;;;90.70;32.50;;;;;;;;;;1021050;29;20082;-74
2022/11/11 01:46:52;;;;;;;93.40;35.20;;;;;;;;;;1025025;28;20034;-74
2022/11/11 01:49:17;;;;;;;85.35;32.08;;;;;;;;;;1026483;28;20027;-74
2022/11/11 01:49:19;;;;;;;78.70;26.80;;;;;;;;;;1027908;28;20791;-74
2022/11/11 01:49:53;;;;;;;89.28;27.70;;;;;;;;;;1026543;28;20030;-75
2022/11/11 01:50:23;;;;;;;79.65;24.38;;;;;;;;;;1023938;28;20049;-75
2022/11/11 01:50:55;;;;;;;80.00;27.25;;;;;;;;;;1022508;28;20534;-74
2022/11/11 01:51:55;;;;;;;76.10;27.58;;;;;;;;;;1025191;28;20428;-74
2022/11/11 01:52:28;;;;;;;85.45;28.40;;;;;;;;;;1014079;29;20149;-75
2022/11/11 01:52:59;;;;;;;80.32;34.05;;;;;;;;;;1030721;28;20026;-75
2022/11/11 01:53:29;;;;;;;81.88;30.50;;;;;;;;;;1028774;28;20062;-75
2022/11/11 01:54:03;;;;;;;76.10;28.77;;;;;;;;;;1029282;28;20031;-75
2022/11/11 01:54:54;;;;;;;76.90;31.45;;;;;;;;;;1027478;28;20096;-75
2022/11/11 01:55:25;;;;;;;68.38;30.10;;;;;;;;;;1029620;28;20046;-75
2022/11/11 01:55:57;;;;;;;65.35;27.33;;;;;;;;;;1029075;28;20026;-75
2022/11/11 01:56:28;;;;;;;78.55;29.83;;;;;;;;;;1028909;28;20022;-75
2022/11/11 01:57:01;;;;;;;69.68;28.83;;;;;;;;;;1024522;28;20483;-75
2022/11/11 01:57:42;;;;;;;96.97;32.13;;;;;;;;;;1019784;28;20694;-74
2022/11/11 01:58:14;;;;;;;66.90;27.02;;;;;;;;;;1021670;28;20023;-74
2022/11/11 01:58:45;;;;;;;71.05;29.17;;;;;;;;;;1024625;28;20030;-74
2022/11/11 01:59:16;;;;;;;67.82;28.50;;;;;;;;;;1025074;28;20057;-74
2022/11/11 01:59:49;;;;;;;81.80;30.10;;;;;;;;;;1024717;28;20023;-74
2022/11/11 02:00:21;;;;;;;56.85;25.13;;;;;;;;;;1025027;28;20049;-74
2022/11/11 02:00:52;;;;;;;51.00;24.70;;;;;;;;;;1025499;28;20026;-74
2022/11/11 02:01:23;;;;;;;63.60;26.42;;;;;;;;;;1024150;28;20030;-74
2022/11/11 02:01:53;;;;;;;61.53;26.33;;;;;;;;;;1024958;28;20048;-74
2022/11/11 02:02:44;;;;;;;52.25;24.63;;;;;;;;;;1022041;28;20050;-74
2022/11/11 02:03:18;;;;;;;70.10;26.02;;;;;;;;;;1019869;29;20039;-74
2022/11/11 02:05:42;;;;;;;54.97;21.88;;;;;;;;;;1028373;28;20015;-74
2022/11/11 02:06:13;;;;;;;54.65;21.67;;;;;;;;;;1027917;28;20080;-75
2022/11/11 02:06:44;;;;;;;56.28;23.52;;;;;;;;;;1029368;28;20058;-74
2022/11/11 02:07:15;;;;;;;45.45;21.65;;;;;;;;;;1029260;28;20034;-75
2022/11/11 02:07:46;;;;;;;51.10;23.90;;;;;;;;;;1024964;28;20030;-75
2022/11/11 02:08:31;;;;;;;51.67;23.50;;;;;;;;;;1025837;28;20027;-75
2022/11/11 02:09:02;;;;;;;50.60;22.77;;;;;;;;;;1025025;28;20027;-74
2022/11/11 02:09:33;;;;;;;54.20;24.13;;;;;;;;;;1026679;28;20088;-75
2022/11/11 02:10:05;;;;;;;67.80;25.60;;;;;;;;;;1027506;28;20548;-75
2022/11/11 02:10:37;;;;;;;50.92;24.70;;;;;;;;;;1028375;28;20027;-75
2022/11/11 02:11:13;;;;;;;56.55;26.10;;;;;;;;;;1026536;28;20121;-74
2022/11/11 02:15:02;;;;;;;74.28;32.92;;;;;;;;;;1028273;28;20123;-75
2022/11/11 02:15:33;;;;;;;82.90;34.78;;;;;;;;;;1027806;28;20130;-75
2022/11/11 02:16:03;;;;;;;82.93;38.70;;;;;;;;;;1028839;28;20247;-74
2022/11/11 02:16:34;;;;;;;92.47;36.60;;;;;;;;;;1029738;28;20036;-74
2022/11/11 02:17:07;;;;;;;63.92;29.27;;;;;;;;;;1028759;28;20053;-75
2022/11/11 02:17:37;;;;;;;85.65;33.47;;;;;;;;;;1027388;28;20777;-75
2022/11/11 02:18:08;;;;;;;73.65;30.75;;;;;;;;;;1026173;28;20282;-74
2022/11/11 02:18:39;;;;;;;66.97;30.65;;;;;;;;;;1027280;28;20042;-74
2022/11/11 02:19:11;;;;;;;49.47;27.88;;;;;;;;;;1028561;28;20117;-74
2022/11/11 02:19:48;;;;;;;62.22;29.70;;;;;;;;;;1028585;28;20073;-74
2022/11/11 02:20:39;;;;;;;64.55;30.05;;;;;;;;;;1025538;28;20031;-74
2022/11/11 02:21:12;;;;;;;82.63;30.08;;;;;;;;;;1024284;28;20525;-74
2022/11/11 02:21:49;;;;;;;95.35;32.55;;;;;;;;;;1022798;28;20086;-74
2022/11/11 02:22:31;;;;;;;63.08;30.90;;;;;;;;;;1026541;28;20018;-74
2022/11/11 02:23:05;;;;;;;76.43;29.02;;;;;;;;;;1025314;28;20026;-73
2022/11/11 02:23:42;;;;;;;68.72;33.17;;;;;;;;;;1024855;28;20806;-74
2022/11/11 02:24:17;;;;;;;99.75;42.35;;;;;;;;;;1025564;28;20039;-75
2022/11/11 02:24:49;;;;;;;95.22;44.85;;;;;;;;;;1023561;28;20482;-75
2022/11/11 02:25:22;;;;;;;90.13;37.97;;;;;;;;;;1027520;28;20035;-75
2022/11/11 02:25:54;;;;;;;89.35;36.22;;;;;;;;;;1023858;28;20030;-74
2022/11/11 02:26:26;;;;;;;76.97;33.17;;;;;;;;;;1024317;28;20438;-74
2022/11/11 02:26:57;;;;;;;80.22;34.30;;;;;;;;;;1025856;28;20509;-74
2022/11/11 02:27:30;;;;;;;74.72;32.53;;;;;;;;;;1024794;28;20466;-74
2022/11/11 02:28:02;;;;;;;85.20;34.80;;;;;;;;;;1028414;28;20117;-75
2022/11/11 02:28:33;;;;;;;67.90;32.97;;;;;;;;;;1023668;28;20121;-74
2022/11/11 02:29:08;;;;;;;69.57;30.25;;;;;;;;;;1025272;28;20018;-76
2022/11/11 02:29:40;;;;;;;95.00;31.70;;;;;;;;;;1025033;28;20023;-75
2022/11/11 02:30:15;;;;;;;64.35;29.42;;;;;;;;;;1025904;28;20471;-75
2022/11/11 02:30:46;;;;;;;82.45;33.47;;;;;;;;;;1024134;28;20035;-75
2022/11/11 02:31:17;;;;;;;84.60;34.35;;;;;;;;;;1021090;29;20031;-75
2022/11/11 02:31:47;;;;;;;92.85;37.47;;;;;;;;;;1021449;28;20035;-74
2022/11/11 02:32:18;;;;;;;78.82;36.15;;;;;;;;;;1025175;28;20027;-76
2022/11/11 02:32:50;;;;;;;91.00;38.65;;;;;;;;;;1021904;28;20031;-75
2022/11/11 02:33:22;;;;;;;128.70;50.10;;;;;;;;;;1027221;28;20059;-75
2022/11/11 02:33:52;;;;;;;163.30;64.90;;;;;;;;;;1025102;28;20037;-76
2022/11/11 02:34:30;;;;;;;149.65;61.45;;;;;;;;;;1022203;28;20066;-76
2022/11/11 02:35:01;;;;;;;121.82;53.72;;;;;;;;;;1024560;28;20054;-76
2022/11/11 02:35:36;;;;;;;116.22;52.58;;;;;;;;;;1024221;28;20026;-74
2022/11/11 02:36:09;;;;;;;115.82;48.83;;;;;;;;;;1026791;28;20026;-75
2022/11/11 02:36:41;;;;;;;107.80;48.53;;;;;;;;;;1029475;28;20533;-74
2022/11/11 02:37:15;;;;;;;106.18;51.83;;;;;;;;;;1025364;28;20018;-74
2022/11/11 02:37:50;;;;;;;120.63;53.00;;;;;;;;;;1014119;28;20027;-74
2022/11/11 02:38:21;;;;;;;141.65;62.22;;;;;;;;;;1019967;28;20031;-74
2022/11/11 02:38:52;;;;;;;127.43;56.40;;;;;;;;;;1023129;28;20035;-75
2022/11/11 02:39:24;;;;;;;125.00;56.90;;;;;;;;;;1021104;28;20622;-76
2022/11/11 02:39:59;;;;;;;108.15;48.03;;;;;;;;;;1024685;28;20077;-76
2022/11/11 02:40:35;;;;;;;93.90;47.92;;;;;;;;;;1024479;28;20518;-77
2022/11/11 02:42:09;;;;;;;103.65;53.47;;;;;;;;;;1018077;29;20035;-75
2022/11/11 02:42:39;;;;;;;111.25;49.58;;;;;;;;;;1023489;28;20149;-75
2022/11/11 02:43:10;;;;;;;109.78;50.70;;;;;;;;;;1030203;28;20494;-75
2022/11/11 02:43:41;;;;;;;111.85;53.63;;;;;;;;;;1025119;28;20022;-75
2022/11/11 02:44:12;;;;;;;114.78;48.50;;;;;;;;;;1023768;28;20815;-76
2022/11/11 02:44:42;;;;;;;118.78;53.20;;;;;;;;;;1023889;28;20027;-75
2022/11/11 02:45:15;;;;;;;122.40;52.15;;;;;;;;;;1023805;28;20027;-75
2022/11/11 02:45:46;;;;;;;105.55;51.03;;;;;;;;;;1026594;28;20030;-75
2022/11/11 02:46:16;;;;;;;131.70;57.10;;;;;;;;;;1028037;28;20497;-75
2022/11/11 02:46:47;;;;;;;130.00;59.22;;;;;;;;;;1027483;28;20038;-75
2022/11/11 02:47:18;;;;;;;123.47;58.17;;;;;;;;;;1031309;28;20022;-75
2022/11/11 02:47:49;;;;;;;114.30;54.90;;;;;;;;;;1029156;28;20058;-75
2022/11/11 02:48:19;;;;;;;132.32;57.97;;;;;;;;;;1029325;28;20118;-76
2022/11/11 02:48:50;;;;;;;131.65;52.22;;;;;;;;;;1030145;28;20042;-76
2022/11/11 02:49:21;;;;;;;136.85;53.05;;;;;;;;;;1028918;28;20030;-76
2022/11/11 02:49:52;;;;;;;135.80;54.88;;;;;;;;;;1029126;28;20022;-75
2022/11/11 02:50:23;;;;;;;128.38;53.10;;;;;;;;;;1025310;28;20089;-75
2022/11/11 02:50:54;;;;;;;122.93;53.97;;;;;;;;;;1024837;28;20034;-75
2022/11/11 02:51:25;;;;;;;124.07;54.80;;;;;;;;;;1027768;28;20121;-76
2022/11/11 02:51:56;;;;;;;131.07;53.83;;;;;;;;;;1026762;28;20023;-75
2022/11/11 02:52:27;;;;;;;132.88;50.47;;;;;;;;;;1026286;28;20379;-75
2022/11/11 02:52:58;;;;;;;129.27;48.42;;;;;;;;;;1030167;28;20370;-76
2022/11/11 02:53:29;;;;;;;106.55;41.17;;;;;;;;;;1032204;28;20120;-75
2022/11/11 02:54:00;;;;;;;122.88;45.35;;;;;;;;;;1024697;28;20023;-75
2022/11/11 02:54:30;;;;;;;111.35;48.38;;;;;;;;;;1025246;28;20039;-75
2022/11/11 02:55:01;;;;;;;116.03;47.92;;;;;;;;;;1023395;29;20023;-75
2022/11/11 02:55:32;;;;;;;110.53;47.00;;;;;;;;;;1018528;29;20027;-75
2022/11/11 02:56:03;;;;;;;110.10;46.60;;;;;;;;;;1023931;28;20027;-75
2022/11/11 02:57:22;;;;;;;122.55;47.38;;;;;;;;;;1024259;28;20827;-74
2022/11/11 02:57:53;;;;;;;121.80;49.03;;;;;;;;;;1018646;28;20324;-75
2022/11/11 02:58:24;;;;;;;118.05;50.33;;;;;;;;;;1019287;28;20494;-76
2022/11/11 02:58:55;;;;;;;124.70;49.65;;;;;;;;;;1020599;29;20086;-74
2022/11/11 02:59:28;;;;;;;124.20;51.13;;;;;;;;;;1022349;28;20645;-75
2022/11/11 02:59:59;;;;;;;112.78;47.50;;;;;;;;;;1025470;28;20552;-75
2022/11/11 03:00:30;;;;;;;125.55;48.83;;;;;;;;;;999070;28;20026;-75
2022/11/11 03:01:01;;;;;;;113.78;48.25;;;;;;;;;;1031457;28;20014;-76
2022/11/11 03:01:32;;;;;;;104.25;40.35;;;;;;;;;;1027043;28;20027;-75
2022/11/11 03:02:03;;;;;;;104.60;42.40;;;;;;;;;;1023471;28;20047;-75
2022/11/11 03:02:35;;;;;;;95.55;40.90;;;;;;;;;;1022671;28;20027;-76
2022/11/11 03:03:07;;;;;;;111.07;42.35;;;;;;;;;;1018876;29;20397;-76
2022/11/11 03:03:38;;;;;;;113.10;45.20;;;;;;;;;;1021036;29;20055;-76
2022/11/11 03:04:08;;;;;;;108.47;44.70;;;;;;;;;;1022228;28;20034;-77
2022/11/11 03:04:40;;;;;;;89.97;38.92;;;;;;;;;;1025865;28;20624;-75
2022/11/11 03:05:11;;;;;;;101.68;41.88;;;;;;;;;;1029203;28;20044;-75
2022/11/11 03:05:42;;;;;;;96.47;36.22;;;;;;;;;;1028241;28;20023;-76
2022/11/11 03:06:14;;;;;;;78.32;32.83;;;;;;;;;;1025045;28;20121;-76
2022/11/11 03:06:46;;;;;;;83.70;31.95;;;;;;;;;;1018874;29;20141;-76
2022/11/11 03:07:17;;;;;;;93.78;34.72;;;;;;;;;;1020144;28;20043;-76
2022/11/11 03:07:48;;;;;;;90.93;36.53;;;;;;;;;;1024146;28;20458;-77
2022/11/11 03:08:20;;;;;;;84.88;34.40;;;;;;;;;;1022777;28;20030;-75
2022/11/11 03:08:51;;;;;;;92.53;32.40;;;;;;;;;;1022981;28;20398;-76
2022/11/11 03:09:24;;;;;;;93.85;37.00;;;;;;;;;;1026802;28;20033;-74
2022/11/11 03:09:58;;;;;;;88.55;34.63;;;;;;;;;;1021341;29;20070;-76
2022/11/11 03:10:29;;;;;;;91.50;33.80;;;;;;;;;;1022234;28;20110;-77
2022/11/11 03:11:02;;;;;;;80.40;35.38;;;;;;;;;;1024548;28;20030;-75
2022/11/11 03:11:37;;;;;;;92.97;38.00;;;;;;;;;;1025582;28;20030;-75
2022/11/11 03:12:08;;;;;;;75.18;34.85;;;;;;;;;;1029382;28;20026;-75
2022/11/11 03:12:40;;;;;;;83.05;34.70;;;;;;;;;;1024424;28;20034;-76
2022/11/11 03:13:11;;;;;;;68.15;29.38;;;;;;;;;;1025159;28;20058;-76
2022/11/11 03:13:41;;;;;;;72.53;31.52;;;;;;;;;;1024612;28;20022;-75
2022/11/11 03:14:13;;;;;;;69.53;32.08;;;;;;;;;;1024321;28;20027;-75
2022/11/11 03:14:44;;;;;;;62.25;27.67;;;;;;;;;;1023122;28;20117;-76
2022/11/11 03:15:15;;;;;;;67.25;29.23;;;;;;;;;;1026762;28;20590;-75
2022/11/11 03:15:46;;;;;;;55.28;27.05;;;;;;;;;;1025818;28;20034;-75
2022/11/11 03:17:58;;;;;;;81.60;24.48;;;;;;;;;;1025666;28;20014;-76
2022/11/11 03:18:31;;;;;;;64.72;27.67;;;;;;;;;;1026888;28;20136;-75
2022/11/11 03:19:02;;;;;;;65.65;28.95;;;;;;;;;;1025433;28;20446;-76
2022/11/11 03:19:33;;;;;;;77.65;27.30;;;;;;;;;;1024631;28;20011;-76
2022/11/11 03:21:04;;;;;;;65.35;26.67;;;;;;;;;;1027291;28;20497;-76
2022/11/11 03:21:34;;;;;;;57.47;26.23;;;;;;;;;;1024529;28;20061;-76
2022/11/11 03:22:05;;;;;;;73.32;27.00;;;;;;;;;;1019858;29;20078;-76
2022/11/11 03:22:36;;;;;;;59.35;28.65;;;;;;;;;;1018471;29;20034;-75
2022/11/11 03:23:06;;;;;;;67.30;26.17;;;;;;;;;;1020906;29;20798;-75
2022/11/11 03:23:37;;;;;;;58.05;24.70;;;;;;;;;;1021177;28;20027;-76
2022/11/11 03:24:08;;;;;;;52.67;25.27;;;;;;;;;;1021656;28;20472;-76
2022/11/11 03:25:36;;;;;;;52.58;24.25;;;;;;;;;;1025998;28;20026;-76
2022/11/11 03:26:08;;;;;;;79.43;22.10;;;;;;;;;;1026086;28;20031;-76
2022/11/11 03:26:38;;;;;;;45.85;21.65;;;;;;;;;;1023834;28;20154;-76
2022/11/11 03:27:09;;;;;;;59.97;24.73;;;;;;;;;;1023813;28;20031;-76
2022/11/11 03:27:41;;;;;;;52.67;25.45;;;;;;;;;;1023438;28;20019;-75
2022/11/11 03:28:13;;;;;;;67.38;27.90;;;;;;;;;;1026535;28;20471;-75
2022/11/11 03:28:43;;;;;;;63.00;25.15;;;;;;;;;;1029948;28;20034;-75
2022/11/11 03:29:14;;;;;;;45.67;22.90;;;;;;;;;;1029819;28;20022;-76
2022/11/11 03:29:44;;;;;;;46.58;21.33;;;;;;;;;;1029747;28;20117;-75
2022/11/11 03:30:15;;;;;;;61.75;21.83;;;;;;;;;;1029132;28;20885;-75
2022/11/11 03:30:47;;;;;;;47.42;20.85;;;;;;;;;;1032014;28;20053;-75
2022/11/11 03:31:17;;;;;;;48.72;20.77;;;;;;;;;;1030751;28;20058;-75
2022/11/11 03:31:48;;;;;;;51.00;23.92;;;;;;;;;;1031591;28;20036;-75
2022/11/11 03:32:19;;;;;;;68.72;32.90;;;;;;;;;;1032324;28;20026;-76
2022/11/11 03:32:51;;;;;;;72.90;34.25;;;;;;;;;;1028743;28;20046;-76